Moscow, Vermont
Current Conditions -  °F | °C
As of 6:54 PM on Monday 20 Oct 2014 (Local Time) from KMVL Reporting Station
Overcast Overcast  
Wind Chill: 45°   Ceiling: 5500
Heat Index: 45°   Visibility: 10mi
Dew Point: 36°   Wind: 0mph
Humidity: 71%   Direction: NA
Pressure: 29.95"   Gusts: NA
Location:  44.44°N, 72.72°W
Report Text: KMVL 202254Z AUTO 00000KT 10SM OVC055 07/02 A2995 RMK AO2 SLP149 T00720022
Loading
Personal Weather Stations






























Interactive Weather Map
Tropical Storm Tracking
New forecast layout! Learn more

10-Day Weather Forecast

Advertisements
Track Severe Weather on mobile